createdAt,value
2022-11-10T00:01:23.259Z,2.50
2022-11-10T00:06:24.656Z,2.33
2022-11-10T00:11:26.011Z,2.40
2022-11-10T00:16:45.945Z,2.63
2022-11-10T00:21:47.517Z,2.17
2022-11-10T00:26:48.892Z,2.13
2022-11-10T00:31:50.293Z,2.70
2022-11-10T00:36:51.665Z,2.30
2022-11-10T00:41:53.049Z,2.20
2022-11-10T00:46:54.408Z,3.05
2022-11-10T00:51:55.822Z,2.30
2022-11-10T00:56:57.180Z,2.70
2022-11-10T01:01:58.533Z,3.03
2022-11-10T01:07:00.264Z,2.80
2022-11-10T01:12:01.676Z,2.53
2022-11-10T01:17:03.047Z,3.22
2022-11-10T01:22:04.410Z,3.08
2022-11-10T01:27:05.796Z,2.60
2022-11-10T01:32:07.318Z,2.35
2022-11-10T01:37:08.687Z,3.03
2022-11-10T01:42:10.075Z,2.50
2022-11-10T01:47:11.452Z,2.53
2022-11-10T01:52:14.695Z,2.47
2022-11-10T01:57:16.719Z,2.30
2022-11-10T02:02:24.841Z,2.60
2022-11-10T02:07:26.512Z,2.40
2022-11-10T02:12:38.480Z,2.85
2022-11-10T02:17:40.328Z,2.83
2022-11-10T02:22:41.746Z,2.53
2022-11-10T02:27:43.119Z,2.88
2022-11-10T02:32:44.642Z,2.50
2022-11-10T02:37:45.989Z,2.85
2022-11-10T02:42:48.901Z,3.20
2022-11-10T02:47:50.419Z,3.47
2022-11-10T02:52:51.767Z,3.45
2022-11-10T02:57:53.130Z,2.85
2022-11-10T03:03:05.204Z,2.97
2022-11-10T03:08:06.647Z,3.13
2022-11-10T03:13:12.337Z,3.28
2022-11-10T03:18:13.808Z,3.17
2022-11-10T03:23:15.967Z,2.85
2022-11-10T03:28:17.415Z,3.45
2022-11-10T03:33:19.020Z,3.50
2022-11-10T03:38:21.712Z,2.80
2022-11-10T03:43:24.407Z,3.05
2022-11-10T03:48:26.025Z,3.13
2022-11-10T03:53:27.509Z,3.10
2022-11-10T03:58:28.979Z,2.95
2022-11-10T04:03:30.561Z,3.72
2022-11-10T04:08:50.487Z,3.30
2022-11-10T04:14:10.299Z,3.13
2022-11-10T04:19:12.540Z,2.78
2022-11-10T04:24:13.938Z,2.95
2022-11-10T04:29:18.925Z,3.95
2022-11-10T04:34:20.259Z,3.33
2022-11-10T04:39:21.727Z,3.13
2022-11-10T04:44:23.139Z,3.00
2022-11-10T04:49:24.531Z,3.40
2022-11-10T04:54:25.881Z,3.08
2022-11-10T04:59:27.455Z,3.30
2022-11-10T05:04:28.804Z,3.30
2022-11-10T05:09:30.464Z,2.92
2022-11-10T05:14:31.880Z,3.40
2022-11-10T05:19:33.462Z,2.65
2022-11-10T05:24:34.852Z,3.10
2022-11-10T05:29:36.445Z,3.00
2022-11-10T05:34:39.770Z,3.03
2022-11-10T05:39:41.143Z,3.20
2022-11-10T05:44:42.821Z,3.38
2022-11-10T05:49:44.458Z,3.28
2022-11-10T05:54:45.828Z,3.80
2022-11-10T05:59:47.309Z,3.90
2022-11-10T06:04:48.726Z,4.05
2022-11-10T06:09:50.183Z,3.70
2022-11-10T06:14:51.937Z,3.65
2022-11-10T06:19:53.338Z,3.50
2022-11-10T06:24:57.686Z,3.30
2022-11-10T06:29:59.076Z,3.20
2022-11-10T06:35:00.959Z,3.50
2022-11-10T06:40:02.485Z,3.65
2022-11-10T06:45:04.292Z,4.00
2022-11-10T06:50:14.761Z,3.65
2022-11-10T06:55:16.193Z,3.65
2022-11-10T07:00:18.081Z,2.95
2022-11-10T07:05:19.905Z,3.50
2022-11-10T07:10:21.394Z,3.40
2022-11-10T07:15:22.961Z,3.00
2022-11-10T07:20:26.116Z,3.72
2022-11-10T07:25:28.208Z,3.28
2022-11-10T07:30:30.523Z,3.90
2022-11-10T07:35:32.674Z,3.35
2022-11-10T07:40:34.409Z,3.42
2022-11-10T07:45:39.017Z,3.75
2022-11-10T07:50:40.409Z,3.70
2022-11-10T07:55:43.034Z,3.67
2022-11-10T08:00:44.983Z,3.67
2022-11-10T08:05:46.520Z,4.07
2022-11-10T08:10:50.035Z,4.22
2022-11-10T08:15:51.522Z,4.53
2022-11-10T08:20:52.925Z,4.80
2022-11-10T08:25:54.384Z,5.47
2022-11-10T08:30:55.792Z,5.45
2022-11-10T08:35:57.433Z,6.35
2022-11-10T08:40:58.858Z,5.60
2022-11-10T08:46:02.090Z,5.15
2022-11-10T08:51:03.652Z,5.07
2022-11-10T08:56:05.209Z,4.88
2022-11-10T09:01:12.600Z,4.90
2022-11-10T09:06:14.040Z,4.18
2022-11-10T09:11:15.652Z,4.53
2022-11-10T09:16:17.136Z,3.67
2022-11-10T09:21:18.526Z,4.53
2022-11-10T09:26:20.473Z,4.70
2022-11-10T09:31:22.112Z,5.35
2022-11-10T09:36:23.789Z,6.38
2022-11-10T09:41:25.234Z,6.55
2022-11-10T09:46:29.620Z,5.50
2022-11-10T09:51:33.390Z,6.05
2022-11-10T09:56:35.793Z,5.72
2022-11-10T10:01:43.147Z,5.22
2022-11-10T10:07:11.885Z,5.35
2022-11-10T10:12:25.911Z,4.18
2022-11-10T10:17:30.077Z,4.50
2022-11-10T10:22:38.375Z,4.70
2022-11-10T10:27:40.870Z,4.10
2022-11-10T10:32:42.614Z,4.10
2022-11-10T10:37:47.669Z,4.75
2022-11-10T10:42:49.255Z,4.35
2022-11-10T10:47:52.061Z,3.50
2022-11-10T10:53:07.431Z,4.32
2022-11-10T10:58:27.581Z,3.42
2022-11-10T11:08:30.473Z,4.05
2022-11-10T11:13:31.915Z,4.70
2022-11-10T11:18:39.244Z,4.35
2022-11-10T11:23:59.862Z,3.53
2022-11-10T11:29:10.302Z,3.67
2022-11-10T11:34:15.819Z,3.58
2022-11-10T11:39:35.895Z,3.20
2022-11-10T11:50:00.186Z,3.70
2022-11-10T11:55:10.559Z,3.88
2022-11-10T12:00:13.946Z,4.05
2022-11-10T12:05:29.165Z,3.42
2022-11-10T12:10:43.171Z,3.67
2022-11-10T12:15:54.826Z,3.58
2022-11-10T12:20:56.230Z,4.43
2022-11-10T12:26:06.675Z,3.40
2022-11-10T12:31:12.487Z,3.97
2022-11-10T12:36:15.371Z,4.07
2022-11-10T12:41:18.279Z,3.42
2022-11-10T12:46:19.933Z,3.65
2022-11-10T12:51:41.559Z,4.72
2022-11-10T12:56:47.953Z,3.95
2022-11-10T13:01:51.387Z,3.85
2022-11-10T13:06:55.702Z,3.60
2022-11-10T13:12:05.415Z,3.38
2022-11-10T13:22:10.227Z,3.28
2022-11-10T13:27:13.075Z,3.97
2022-11-10T13:32:14.629Z,3.53
2022-11-10T13:37:34.283Z,3.25
2022-11-10T13:42:36.387Z,3.08
2022-11-10T13:47:50.282Z,3.55
2022-11-10T13:53:10.331Z,3.38
2022-11-10T14:03:33.160Z,2.63
2022-11-10T14:08:36.312Z,3.78
2022-11-10T14:13:42.791Z,3.17
2022-11-10T14:18:49.289Z,3.35
2022-11-10T14:23:53.654Z,3.67
2022-11-10T14:28:55.361Z,3.20
2022-11-10T14:33:57.987Z,3.00
2022-11-10T14:38:59.698Z,3.10
2022-11-10T14:44:05.180Z,2.65
2022-11-10T14:49:07.411Z,3.03
2022-11-10T14:54:11.267Z,2.92
2022-11-10T14:59:13.813Z,2.60
2022-11-10T15:04:16.020Z,3.05
2022-11-10T15:09:25.161Z,3.00
2022-11-10T15:14:40.192Z,2.85
2022-11-10T15:19:47.435Z,4.00
2022-11-10T15:24:52.725Z,2.90
2022-11-10T15:29:55.490Z,3.40
2022-11-10T15:35:07.324Z,3.30
2022-11-10T15:40:27.368Z,3.10
2022-11-10T15:50:30.917Z,2.65
2022-11-10T15:55:34.503Z,3.22
2022-11-10T16:00:38.839Z,2.95
2022-11-10T16:05:41.188Z,2.95
2022-11-10T16:10:44.218Z,3.17
2022-11-10T16:15:45.580Z,2.95
2022-11-10T16:20:47.876Z,3.75
2022-11-10T16:25:50.963Z,2.85
2022-11-10T16:30:53.436Z,2.67
2022-11-10T16:35:55.694Z,2.85
2022-11-10T16:40:58.252Z,3.05
2022-11-10T16:46:02.071Z,2.88
2022-11-10T16:51:03.629Z,3.90
2022-11-10T16:56:07.565Z,2.95
2022-11-10T17:01:28.964Z,2.78
2022-11-10T17:06:30.600Z,3.03
2022-11-10T17:11:32.372Z,2.95
2022-11-10T17:16:37.854Z,3.00
2022-11-10T17:21:39.368Z,2.88
2022-11-10T17:26:41.204Z,2.83
2022-11-10T17:31:45.461Z,3.08
2022-11-10T17:36:48.973Z,3.08
2022-11-10T17:41:51.384Z,3.30
2022-11-10T17:46:52.783Z,3.30
2022-11-10T17:51:54.403Z,3.33
2022-11-10T17:56:55.883Z,2.95
2022-11-10T18:01:58.231Z,3.00
2022-11-10T18:06:59.731Z,3.63
2022-11-10T18:12:01.141Z,3.50
2022-11-10T18:17:02.606Z,3.42
2022-11-10T18:22:04.013Z,3.30
2022-11-10T18:27:05.403Z,3.20
2022-11-10T18:32:06.863Z,4.47
2022-11-10T18:37:08.386Z,3.35
2022-11-10T18:42:09.823Z,3.78
2022-11-10T18:47:11.892Z,3.47
2022-11-10T18:52:13.330Z,3.17
2022-11-10T18:57:16.715Z,3.05
2022-11-10T19:02:18.264Z,3.65
2022-11-10T19:07:19.694Z,3.70
2022-11-10T19:12:26.364Z,3.78
2022-11-10T19:17:29.192Z,3.13
2022-11-10T19:22:30.608Z,3.42
2022-11-10T19:27:32.005Z,2.95
2022-11-10T19:32:33.470Z,3.45
2022-11-10T19:37:35.060Z,3.00
2022-11-10T19:42:38.833Z,3.63
2022-11-10T19:47:40.329Z,3.78
2022-11-10T19:52:41.753Z,3.33
2022-11-10T19:57:43.226Z,3.15
2022-11-10T20:02:45.854Z,3.83
2022-11-10T20:08:09.685Z,3.10
2022-11-10T20:13:11.838Z,3.08
2022-11-10T20:18:16.019Z,3.70
2022-11-10T20:23:18.873Z,3.63
2022-11-10T20:28:20.241Z,3.65
2022-11-10T20:33:22.042Z,2.72
2022-11-10T20:38:23.721Z,3.13
2022-11-10T20:43:25.465Z,3.40
2022-11-10T20:48:28.985Z,3.63
2022-11-10T20:53:30.419Z,3.33
2022-11-10T20:58:31.893Z,3.35
2022-11-10T21:03:33.554Z,3.40
2022-11-10T21:08:35.378Z,3.35
2022-11-10T21:13:37.272Z,3.53
2022-11-10T21:18:39.111Z,3.65
2022-11-10T21:23:40.531Z,4.22
2022-11-10T21:28:41.891Z,4.03
2022-11-10T21:33:43.307Z,3.38
2022-11-10T21:38:47.869Z,4.00
2022-11-10T21:43:49.251Z,3.83
2022-11-10T21:48:51.096Z,4.15
2022-11-10T21:53:52.559Z,3.67
2022-11-10T21:58:54.019Z,4.20
2022-11-10T22:03:55.392Z,3.65
2022-11-10T22:08:57.037Z,4.50
2022-11-10T22:14:17.135Z,4.40
2022-11-10T22:24:28.652Z,4.63
2022-11-10T22:29:31.992Z,4.30
2022-11-10T22:34:33.588Z,4.70
2022-11-10T22:39:53.554Z,5.15
2022-11-10T22:44:54.941Z,4.72
2022-11-10T22:49:56.346Z,4.97
2022-11-10T22:54:58.459Z,4.78
2022-11-10T23:00:00.036Z,4.93
2022-11-10T23:05:01.499Z,4.90
2022-11-10T23:10:03.668Z,5.20
2022-11-10T23:15:05.262Z,5.22
2022-11-10T23:20:06.868Z,5.38
2022-11-10T23:25:08.375Z,5.95
2022-11-10T23:30:09.939Z,5.68
2022-11-10T23:35:13.754Z,5.50
2022-11-10T23:40:15.127Z,5.40
2022-11-10T23:45:17.130Z,6.07
2022-11-10T23:50:18.516Z,5.28
2022-11-10T23:55:19.934Z,5.43
